createdAt,value
2022-10-15T00:01:32.688Z,12.28
2022-10-15T00:06:34.367Z,12.37
2022-10-15T00:09:02.283Z,12.59
2022-10-15T00:11:30.093Z,12.57
2022-10-15T00:14:00.334Z,12.58
2022-10-15T00:16:29.482Z,12.52
2022-10-15T00:18:58.210Z,12.47
2022-10-15T00:21:26.192Z,12.42
2022-10-15T00:23:53.593Z,12.47
2022-10-15T00:26:27.048Z,12.50
2022-10-15T00:28:57.444Z,12.45
2022-10-15T00:31:27.381Z,12.34
2022-10-15T00:33:56.922Z,12.33
2022-10-15T00:36:30.100Z,12.38
2022-10-15T00:38:57.785Z,12.30
2022-10-15T00:41:31.811Z,12.32
2022-10-15T00:44:02.161Z,12.38
2022-10-15T00:46:36.738Z,12.32
2022-10-15T00:49:24.982Z,12.38
2022-10-15T00:52:14.489Z,12.37
2022-10-15T00:54:45.042Z,12.38
2022-10-15T00:57:13.960Z,12.41
2022-10-15T00:59:50.968Z,12.43
2022-10-15T01:02:19.889Z,12.31
2022-10-15T01:04:48.510Z,12.27
2022-10-15T01:09:46.722Z,12.15
2022-10-15T01:12:52.302Z,12.12
2022-10-15T01:15:26.732Z,12.04
2022-10-15T01:18:29.313Z,12.04
2022-10-15T01:21:19.269Z,12.12
2022-10-15T01:23:50.134Z,12.17
2022-10-15T01:26:56.011Z,12.02
2022-10-15T01:29:35.210Z,12.06
2022-10-15T01:32:49.297Z,11.91
2022-10-15T01:35:46.417Z,11.83
2022-10-15T01:38:42.554Z,11.63
2022-10-15T01:41:09.813Z,11.76
2022-10-15T01:43:46.399Z,11.77
2022-10-15T01:46:59.256Z,11.67
2022-10-15T01:49:33.472Z,11.60
2022-10-15T01:52:12.564Z,11.64
2022-10-15T01:54:41.526Z,11.66
2022-10-15T01:57:11.137Z,11.77
2022-10-15T01:59:42.827Z,11.95
2022-10-15T02:02:12.842Z,11.91
2022-10-15T02:04:40.532Z,11.80
2022-10-15T02:07:30.952Z,11.78
2022-10-15T02:10:08.396Z,11.71
2022-10-15T02:12:54.226Z,11.65
2022-10-15T02:16:11.352Z,11.59
2022-10-15T02:19:13.739Z,11.54
2022-10-15T02:21:52.028Z,11.57
2022-10-15T02:24:42.039Z,11.56
2022-10-15T02:27:11.359Z,11.45
2022-10-15T02:29:40.610Z,11.42
2022-10-15T02:32:09.336Z,11.44
2022-10-15T02:34:37.476Z,11.47
2022-10-15T02:37:07.441Z,11.58
2022-10-15T02:39:38.378Z,11.48
2022-10-15T02:42:06.677Z,11.49
2022-10-15T02:44:34.009Z,11.40
2022-10-15T02:47:02.989Z,11.38
2022-10-15T02:49:30.394Z,11.49
2022-10-15T02:51:57.881Z,11.40
2022-10-15T02:54:25.289Z,11.37
2022-10-15T02:56:52.579Z,11.36
2022-10-15T02:59:22.396Z,11.50
2022-10-15T03:01:50.956Z,11.43
2022-10-15T03:04:18.629Z,11.44
2022-10-15T03:06:46.189Z,11.50
2022-10-15T03:09:14.569Z,11.45
2022-10-15T03:11:42.006Z,11.53
2022-10-15T03:14:09.451Z,11.57
2022-10-15T03:16:36.788Z,11.53
2022-10-15T03:19:04.159Z,11.41
2022-10-15T03:21:31.813Z,11.45
2022-10-15T03:24:10.636Z,11.37
2022-10-15T03:26:38.584Z,11.32
2022-10-15T03:29:06.353Z,11.47
2022-10-15T03:31:46.714Z,11.45
2022-10-15T03:34:14.065Z,11.40
2022-10-15T03:36:43.247Z,11.28
2022-10-15T03:39:14.213Z,11.30
2022-10-15T03:41:42.198Z,11.33
2022-10-15T03:44:11.548Z,11.32
2022-10-15T03:46:43.825Z,11.37
2022-10-15T03:49:12.287Z,11.35
2022-10-15T03:51:40.299Z,11.29
2022-10-15T03:54:13.510Z,11.35
2022-10-15T03:56:47.912Z,11.33
2022-10-15T03:59:25.468Z,11.18
2022-10-15T04:01:59.227Z,11.14
2022-10-15T04:04:27.962Z,11.16
2022-10-15T04:06:55.511Z,11.11
2022-10-15T04:09:23.727Z,11.12
2022-10-15T04:11:51.236Z,11.08
2022-10-15T04:14:20.505Z,11.08
2022-10-15T04:16:47.944Z,10.98
2022-10-15T04:19:19.970Z,11.10
2022-10-15T04:21:57.370Z,11.11
2022-10-15T04:24:32.277Z,11.03
2022-10-15T04:26:59.570Z,11.04
2022-10-15T04:29:27.152Z,11.01
2022-10-15T04:32:02.399Z,10.88
2022-10-15T04:34:30.906Z,10.95
2022-10-15T04:36:58.222Z,10.95
2022-10-15T04:39:25.517Z,10.91
2022-10-15T04:41:52.878Z,10.93
2022-10-15T04:44:27.735Z,10.87
2022-10-15T04:46:57.843Z,10.82
2022-10-15T04:49:39.705Z,10.99
2022-10-15T04:52:18.675Z,10.82
2022-10-15T04:54:55.967Z,10.81
2022-10-15T04:57:23.519Z,10.87
2022-10-15T04:59:53.908Z,10.82
2022-10-15T05:02:33.557Z,10.81
2022-10-15T05:05:29.838Z,10.99
2022-10-15T05:08:01.301Z,10.85
2022-10-15T05:10:30.191Z,10.96
2022-10-15T05:13:01.890Z,10.95
2022-10-15T05:15:32.844Z,11.07
2022-10-15T05:18:00.103Z,11.03
2022-10-15T05:20:38.344Z,11.00
2022-10-15T05:23:06.589Z,11.18
2022-10-15T05:25:35.629Z,11.09
2022-10-15T05:28:03.895Z,11.12
2022-10-15T05:30:31.691Z,11.11
2022-10-15T05:32:59.333Z,11.17
2022-10-15T05:35:26.761Z,11.22
2022-10-15T05:38:02.007Z,11.30
2022-10-15T05:40:29.403Z,11.33
2022-10-15T05:43:16.541Z,11.41
2022-10-15T05:45:43.928Z,11.49
2022-10-15T05:48:12.210Z,11.53
2022-10-15T05:50:39.668Z,11.69
2022-10-15T05:53:11.711Z,11.79
2022-10-15T05:55:42.758Z,11.93
2022-10-15T05:58:10.090Z,12.08
2022-10-15T06:00:39.763Z,12.28
2022-10-15T06:03:07.137Z,12.49
2022-10-15T06:05:34.470Z,12.54
2022-10-15T06:08:04.467Z,12.63
2022-10-15T06:10:31.772Z,12.42
2022-10-15T06:12:59.061Z,12.44
2022-10-15T06:15:26.380Z,12.57
2022-10-15T06:17:54.595Z,12.75
2022-10-15T06:20:21.867Z,12.72
2022-10-15T06:22:49.148Z,12.65
2022-10-15T06:25:16.631Z,12.68
2022-10-15T06:27:43.913Z,13.04
2022-10-15T06:30:11.593Z,13.10
2022-10-15T06:32:38.929Z,13.08
2022-10-15T06:35:06.902Z,13.11
2022-10-15T06:37:37.581Z,13.27
2022-10-15T06:40:05.164Z,13.55
2022-10-15T06:42:34.128Z,13.79
2022-10-15T06:45:01.449Z,13.87
2022-10-15T06:47:28.768Z,14.02
2022-10-15T06:49:56.002Z,14.21
2022-10-15T06:52:24.176Z,14.39
2022-10-15T06:54:52.011Z,14.61
2022-10-15T06:57:22.046Z,14.75
2022-10-15T06:59:49.604Z,14.86
2022-10-15T07:02:18.057Z,15.04
2022-10-15T07:04:48.200Z,15.25
2022-10-15T07:07:19.207Z,15.49
2022-10-15T07:09:47.746Z,15.61
2022-10-15T07:12:16.620Z,15.62
2022-10-15T07:14:43.923Z,15.77
2022-10-15T07:17:11.219Z,16.06
2022-10-15T07:19:38.537Z,16.12
2022-10-15T07:22:05.815Z,16.02
2022-10-15T07:24:33.216Z,15.99
2022-10-15T07:27:05.104Z,16.37
2022-10-15T07:29:35.777Z,16.49
2022-10-15T07:32:03.972Z,16.55
2022-10-15T07:34:31.360Z,16.50
2022-10-15T07:36:58.725Z,16.48
2022-10-15T07:39:26.049Z,16.52
2022-10-15T07:41:53.420Z,16.52
2022-10-15T07:44:20.734Z,16.64
2022-10-15T07:46:48.921Z,16.89
2022-10-15T07:49:16.672Z,17.01
2022-10-15T07:51:45.716Z,16.94
2022-10-15T07:54:13.116Z,16.71
2022-10-15T07:56:40.442Z,16.69
2022-10-15T07:59:09.117Z,16.68
2022-10-15T08:01:36.472Z,17.12
2022-10-15T08:04:03.930Z,17.20
2022-10-15T08:06:33.087Z,17.33
2022-10-15T08:09:00.483Z,17.35
2022-10-15T08:11:29.600Z,17.33
2022-10-15T08:13:56.899Z,17.41
2022-10-15T08:16:24.314Z,17.48
2022-10-15T08:19:09.669Z,17.57
2022-10-15T08:21:37.031Z,17.93
2022-10-15T08:24:04.654Z,18.09
2022-10-15T08:26:36.171Z,18.03
2022-10-15T08:29:04.049Z,18.13
2022-10-15T08:31:35.542Z,18.28
2022-10-15T08:34:03.395Z,18.47
2022-10-15T08:36:30.789Z,18.64
2022-10-15T08:38:58.741Z,18.66
2022-10-15T08:41:43.309Z,18.83
2022-10-15T08:44:25.727Z,18.92
2022-10-15T08:47:12.450Z,19.00
2022-10-15T08:49:45.781Z,18.66
2022-10-15T08:52:46.469Z,18.58
2022-10-15T08:55:20.200Z,18.86
2022-10-15T08:58:14.388Z,19.05
2022-10-15T09:01:00.096Z,19.09
2022-10-15T09:03:39.141Z,19.38
2022-10-15T09:06:24.441Z,20.00
2022-10-15T09:09:19.830Z,20.56
2022-10-15T09:12:17.811Z,20.34
2022-10-15T09:14:48.251Z,20.29
2022-10-15T09:17:27.403Z,20.00
2022-10-15T09:19:57.411Z,20.51
2022-10-15T09:22:31.219Z,20.46
2022-10-15T09:24:58.672Z,20.39
2022-10-15T09:27:35.396Z,20.65
2022-10-15T09:30:07.833Z,20.78
2022-10-15T09:32:59.856Z,20.70
2022-10-15T09:35:34.032Z,20.38
2022-10-15T09:38:27.890Z,20.48
2022-10-15T09:41:16.958Z,20.76
2022-10-15T09:43:52.077Z,20.77
2022-10-15T09:46:20.143Z,21.09
2022-10-15T09:49:05.913Z,21.50
2022-10-15T09:51:40.118Z,21.39
2022-10-15T09:54:32.518Z,21.08
2022-10-15T09:56:59.866Z,21.74
2022-10-15T09:59:27.477Z,21.96
2022-10-15T10:01:59.666Z,21.54
2022-10-15T10:04:33.167Z,21.62
2022-10-15T10:07:07.841Z,21.59
2022-10-15T10:09:52.497Z,21.67
2022-10-15T10:12:23.933Z,21.83
2022-10-15T10:15:02.812Z,21.43
2022-10-15T10:17:30.981Z,21.45
2022-10-15T10:20:11.219Z,21.33
2022-10-15T10:22:51.729Z,21.84
2022-10-15T10:25:45.107Z,22.01
2022-10-15T10:28:12.530Z,22.22
2022-10-15T10:30:58.740Z,22.03
2022-10-15T10:33:36.460Z,22.02
2022-10-15T10:36:06.641Z,21.99
2022-10-15T10:38:36.124Z,22.37
2022-10-15T10:41:11.598Z,22.36
2022-10-15T10:43:41.141Z,22.39
2022-10-15T10:46:15.114Z,22.38
2022-10-15T10:48:49.568Z,22.46
2022-10-15T10:51:25.871Z,22.68
2022-10-15T10:53:56.493Z,22.53
2022-10-15T10:56:30.711Z,22.61
2022-10-15T10:59:10.695Z,22.36
2022-10-15T11:01:38.150Z,22.36
2022-10-15T11:04:12.952Z,22.49
2022-10-15T11:06:51.224Z,22.62
2022-10-15T11:09:46.034Z,22.92
2022-10-15T11:12:28.478Z,22.34
2022-10-15T11:15:23.028Z,22.39
2022-10-15T11:18:20.128Z,22.63
2022-10-15T11:21:07.667Z,22.95
2022-10-15T11:23:42.247Z,23.04
2022-10-15T11:26:46.025Z,22.47
2022-10-15T11:29:39.727Z,22.29
2022-10-15T11:32:16.601Z,22.48
2022-10-15T11:35:24.070Z,22.40
2022-10-15T11:38:01.489Z,22.50
2022-10-15T11:40:53.696Z,22.50
2022-10-15T11:43:48.162Z,22.76
2022-10-15T11:46:19.871Z,23.81
2022-10-15T11:49:13.505Z,24.34
2022-10-15T11:52:08.022Z,25.22
2022-10-15T11:54:47.687Z,26.88
2022-10-15T11:57:19.402Z,27.00
2022-10-15T12:00:12.514Z,25.06
2022-10-15T12:02:40.819Z,23.71
2022-10-15T12:05:15.720Z,23.62
2022-10-15T12:07:48.838Z,23.31
2022-10-15T12:10:35.955Z,23.05
2022-10-15T12:13:10.547Z,23.32
2022-10-15T12:15:56.492Z,23.53
2022-10-15T12:18:36.285Z,23.49
2022-10-15T12:21:03.765Z,23.00
2022-10-15T12:23:48.961Z,22.83
2022-10-15T12:26:34.112Z,22.80
2022-10-15T12:29:18.509Z,22.99
2022-10-15T12:31:56.013Z,22.93
2022-10-15T12:34:44.055Z,22.81
2022-10-15T12:37:19.577Z,22.55
2022-10-15T12:39:52.229Z,22.30
2022-10-15T12:42:27.834Z,22.54
2022-10-15T12:44:56.448Z,22.35
2022-10-15T12:47:51.428Z,22.65
2022-10-15T12:50:27.209Z,22.06
2022-10-15T12:52:58.388Z,22.37
2022-10-15T12:55:27.343Z,22.46
2022-10-15T12:58:00.420Z,22.73
2022-10-15T13:00:31.590Z,22.56
2022-10-15T13:03:22.603Z,22.64
2022-10-15T13:05:53.258Z,22.62
2022-10-15T13:08:55.429Z,22.60
2022-10-15T13:11:28.758Z,22.81
2022-10-15T13:14:12.795Z,22.84
2022-10-15T13:16:48.320Z,22.72
2022-10-15T13:19:22.444Z,22.77
2022-10-15T13:21:58.943Z,22.70
2022-10-15T13:24:31.634Z,22.65
2022-10-15T13:27:01.296Z,22.52
2022-10-15T13:29:28.907Z,22.37
2022-10-15T13:31:58.129Z,22.63
2022-10-15T13:34:31.842Z,22.61
2022-10-15T13:37:02.233Z,22.43
2022-10-15T13:42:25.182Z,22.16
2022-10-15T13:45:00.548Z,22.33
2022-10-15T13:47:29.619Z,22.36
2022-10-15T13:50:26.893Z,22.40
2022-10-15T13:53:20.564Z,22.28
2022-10-15T13:55:50.822Z,22.06
2022-10-15T13:58:24.987Z,21.93
2022-10-15T14:01:08.714Z,22.00
2022-10-15T14:03:39.427Z,22.18
2022-10-15T14:06:25.755Z,22.08
2022-10-15T14:08:58.485Z,21.93
2022-10-15T14:11:28.138Z,21.81
2022-10-15T14:13:58.472Z,21.77
2022-10-15T14:16:35.939Z,21.98
2022-10-15T14:19:06.829Z,21.95
2022-10-15T14:21:36.081Z,21.90
2022-10-15T14:24:13.138Z,21.70
2022-10-15T14:26:40.910Z,21.59
2022-10-15T14:29:36.122Z,21.68
2022-10-15T14:32:17.609Z,21.67
2022-10-15T14:34:45.106Z,21.53
2022-10-15T14:37:37.903Z,21.46
2022-10-15T14:40:11.348Z,21.20
2022-10-15T14:42:44.870Z,20.95
2022-10-15T14:45:26.838Z,20.86
2022-10-15T14:48:03.515Z,20.68
2022-10-15T14:50:36.549Z,20.47
2022-10-15T14:53:10.699Z,20.40
2022-10-15T14:55:43.563Z,20.32
2022-10-15T14:58:18.894Z,20.06
2022-10-15T15:00:47.190Z,20.18
2022-10-15T15:03:20.196Z,20.13
2022-10-15T15:05:50.265Z,20.10
2022-10-15T15:08:17.616Z,19.75
2022-10-15T15:10:46.002Z,19.64
2022-10-15T15:13:20.364Z,19.45
2022-10-15T15:15:47.914Z,19.37
2022-10-15T15:18:15.531Z,19.21
2022-10-15T15:20:44.855Z,19.21
2022-10-15T15:23:22.307Z,19.09
2022-10-15T15:25:50.264Z,19.03
2022-10-15T15:28:23.208Z,18.96
2022-10-15T15:31:01.726Z,18.95
2022-10-15T15:33:29.695Z,18.89
2022-10-15T15:36:03.213Z,18.81
2022-10-15T15:38:31.651Z,18.70
2022-10-15T15:41:04.822Z,18.61
2022-10-15T15:43:32.356Z,18.55
2022-10-15T15:45:59.663Z,18.49
2022-10-15T15:48:27.046Z,18.36
2022-10-15T15:50:54.978Z,18.28
2022-10-15T15:53:22.318Z,18.20
2022-10-15T15:55:49.699Z,18.16
2022-10-15T15:58:16.975Z,18.00
2022-10-15T16:00:44.392Z,17.95
2022-10-15T16:03:15.328Z,17.87
2022-10-15T16:05:45.479Z,17.74
2022-10-15T16:08:13.529Z,17.73
2022-10-15T16:10:41.001Z,17.60
2022-10-15T16:13:08.226Z,17.54
2022-10-15T16:15:35.673Z,17.48
2022-10-15T16:18:03.172Z,17.52
2022-10-15T16:20:30.480Z,17.46
2022-10-15T16:22:57.990Z,17.44
2022-10-15T16:25:27.796Z,17.38
2022-10-15T16:27:59.786Z,17.34
2022-10-15T16:30:27.068Z,17.36
2022-10-15T16:32:54.531Z,17.33
2022-10-15T16:35:22.034Z,17.31
2022-10-15T16:37:49.775Z,17.28
2022-10-15T16:40:17.820Z,17.18
2022-10-15T16:42:45.220Z,17.04
2022-10-15T16:45:12.630Z,16.89
2022-10-15T16:47:40.097Z,16.96
2022-10-15T16:50:08.208Z,16.94
2022-10-15T16:52:35.567Z,16.92
2022-10-15T16:55:03.311Z,16.90
2022-10-15T16:57:32.357Z,16.79
2022-10-15T16:59:59.778Z,16.88
2022-10-15T17:02:28.292Z,16.73
2022-10-15T17:04:55.787Z,16.61
2022-10-15T17:07:24.542Z,16.50
2022-10-15T17:09:52.122Z,16.52
2022-10-15T17:12:19.394Z,16.50
2022-10-15T17:14:53.262Z,16.52
2022-10-15T17:17:20.724Z,16.47
2022-10-15T17:19:48.199Z,16.43
2022-10-15T17:22:15.613Z,16.39
2022-10-15T17:24:43.064Z,16.40
2022-10-15T17:27:10.389Z,16.41
2022-10-15T17:29:37.806Z,16.34
2022-10-15T17:32:05.396Z,16.32
2022-10-15T17:34:32.771Z,16.30
2022-10-15T17:37:00.146Z,16.32
2022-10-15T17:39:27.569Z,16.31
2022-10-15T17:41:55.611Z,16.32
2022-10-15T17:44:23.036Z,16.26
2022-10-15T17:46:50.836Z,16.25
2022-10-15T17:49:19.140Z,16.18
2022-10-15T17:51:47.796Z,16.42
2022-10-15T17:54:15.198Z,16.49
2022-10-15T17:56:43.410Z,16.36
2022-10-15T17:59:14.322Z,16.33
2022-10-15T18:02:00.290Z,16.07
2022-10-15T18:04:30.306Z,16.16
2022-10-15T18:06:58.054Z,16.14
2022-10-15T18:09:28.532Z,16.12
2022-10-15T18:11:58.885Z,16.02
2022-10-15T18:14:30.989Z,15.88
2022-10-15T18:16:58.836Z,15.76
2022-10-15T18:19:27.069Z,15.71
2022-10-15T18:21:55.734Z,15.40
2022-10-15T18:24:24.257Z,15.51
2022-10-15T18:26:52.299Z,15.47
2022-10-15T18:29:20.300Z,15.45
2022-10-15T18:31:48.913Z,15.40
2022-10-15T18:34:18.628Z,15.43
2022-10-15T18:36:46.164Z,15.39
2022-10-15T18:39:13.516Z,15.19
2022-10-15T18:41:41.254Z,15.26
2022-10-15T18:44:15.082Z,15.43
2022-10-15T18:46:45.204Z,15.26
2022-10-15T18:49:15.250Z,15.15
2022-10-15T18:51:43.191Z,15.15
2022-10-15T18:54:11.165Z,15.12
2022-10-15T18:56:39.283Z,14.96
2022-10-15T18:59:06.575Z,14.92
2022-10-15T19:01:39.310Z,14.98
2022-10-15T19:04:09.474Z,14.93
2022-10-15T19:06:42.720Z,14.80
2022-10-15T19:09:13.282Z,14.74
2022-10-15T19:11:42.706Z,14.79
2022-10-15T19:14:10.141Z,14.71
2022-10-15T19:16:38.813Z,14.72
2022-10-15T19:19:13.165Z,14.64
2022-10-15T19:21:40.664Z,14.58
2022-10-15T19:24:08.001Z,14.81
2022-10-15T19:26:35.999Z,14.78
2022-10-15T19:29:04.133Z,14.66
2022-10-15T19:31:34.522Z,14.63
2022-10-15T19:34:02.177Z,14.81
2022-10-15T19:36:35.744Z,14.71
2022-10-15T19:39:12.510Z,14.67
2022-10-15T19:41:41.275Z,14.59
2022-10-15T19:44:09.361Z,14.59
2022-10-15T19:46:38.259Z,14.63
2022-10-15T19:49:07.708Z,14.74
2022-10-15T19:51:35.734Z,14.82
2022-10-15T19:54:03.338Z,14.75
2022-10-15T19:56:33.209Z,14.70
2022-10-15T19:59:04.416Z,14.66
2022-10-15T20:01:32.039Z,14.52
2022-10-15T20:04:04.833Z,14.43
2022-10-15T20:06:35.617Z,14.44
2022-10-15T20:09:03.031Z,14.32
2022-10-15T20:11:30.604Z,14.34
2022-10-15T20:13:59.837Z,14.23
2022-10-15T20:16:27.617Z,14.40
2022-10-15T20:18:56.867Z,14.29
2022-10-15T20:21:24.297Z,14.25
2022-10-15T20:23:51.600Z,14.10
2022-10-15T20:26:19.037Z,14.02
2022-10-15T20:28:46.994Z,14.09
2022-10-15T20:31:21.638Z,14.15
2022-10-15T20:33:49.707Z,14.09
2022-10-15T20:36:22.788Z,14.12
2022-10-15T20:38:51.970Z,14.11
2022-10-15T20:41:20.114Z,14.04
2022-10-15T20:43:54.272Z,14.12
2022-10-15T20:46:27.630Z,14.15
2022-10-15T20:48:57.447Z,14.22
2022-10-15T20:51:28.539Z,14.15
2022-10-15T20:53:57.884Z,14.02
2022-10-15T20:56:25.327Z,13.95
2022-10-15T20:58:52.748Z,13.84
2022-10-15T21:01:20.275Z,13.84
2022-10-15T21:03:47.630Z,13.78
2022-10-15T21:06:14.910Z,13.66
2022-10-15T21:08:42.101Z,13.67
2022-10-15T21:11:09.836Z,13.71
2022-10-15T21:13:37.136Z,13.83
2022-10-15T21:16:06.714Z,13.72
2022-10-15T21:18:36.117Z,13.71
2022-10-15T21:21:08.612Z,14.05
2022-10-15T21:23:37.260Z,14.14
2022-10-15T21:26:06.596Z,14.03
2022-10-15T21:28:35.256Z,13.90
2022-10-15T21:31:06.699Z,13.75
2022-10-15T21:33:34.400Z,13.68
2022-10-15T21:36:22.225Z,13.60
2022-10-15T21:38:54.216Z,13.55
2022-10-15T21:41:23.251Z,13.52
2022-10-15T21:46:23.515Z,13.62
2022-10-15T21:48:52.572Z,13.61
2022-10-15T21:51:32.402Z,13.65
2022-10-15T21:54:01.604Z,13.57
2022-10-15T21:56:29.036Z,13.37
2022-10-15T21:58:59.071Z,13.48
2022-10-15T22:01:29.097Z,13.48
2022-10-15T22:04:01.952Z,13.51
2022-10-15T22:06:30.165Z,13.48
2022-10-15T22:08:58.596Z,13.44
2022-10-15T22:11:31.571Z,13.53
2022-10-15T22:14:03.705Z,13.58
2022-10-15T22:16:34.150Z,13.70
2022-10-15T22:19:01.717Z,14.09
2022-10-15T22:21:31.681Z,14.20
2022-10-15T22:24:01.927Z,14.26
2022-10-15T22:26:32.530Z,14.27
2022-10-15T22:29:02.152Z,14.01
2022-10-15T22:31:29.999Z,13.84
2022-10-15T22:33:58.800Z,13.72
2022-10-15T22:36:28.404Z,13.60
2022-10-15T22:39:02.106Z,13.55
2022-10-15T22:41:32.848Z,13.50
2022-10-15T22:44:00.464Z,13.56
2022-10-15T22:46:28.327Z,13.41
2022-10-15T22:48:55.700Z,13.36
2022-10-15T22:51:23.149Z,13.40
2022-10-15T22:53:54.703Z,13.36
2022-10-15T22:56:22.145Z,13.24
2022-10-15T22:58:49.444Z,13.18
2022-10-15T23:01:21.328Z,13.24
2022-10-15T23:03:52.481Z,13.09
2022-10-15T23:06:20.959Z,13.03
2022-10-15T23:08:48.901Z,12.98
2022-10-15T23:11:22.094Z,12.86
2022-10-15T23:13:53.939Z,12.83
2022-10-15T23:16:34.932Z,12.74
2022-10-15T23:19:05.152Z,12.88
2022-10-15T23:21:35.439Z,12.88
2022-10-15T23:24:03.868Z,12.82
2022-10-15T23:26:31.319Z,12.75
2022-10-15T23:29:00.597Z,12.75
2022-10-15T23:31:33.180Z,12.69
2022-10-15T23:34:02.414Z,12.74
2022-10-15T23:36:30.765Z,12.64
2022-10-15T23:39:01.102Z,12.74
2022-10-15T23:41:29.888Z,12.75
2022-10-15T23:43:57.744Z,12.60
2022-10-15T23:46:25.193Z,12.76
2022-10-15T23:48:52.629Z,12.69
2022-10-15T23:51:22.670Z,12.78
2022-10-15T23:53:50.476Z,12.81
2022-10-15T23:56:18.582Z,12.74
2022-10-15T23:58:50.293Z,12.83
